createdAt,value
2019-05-26T00:01:14.205Z,57.10
2019-05-26T00:03:45.932Z,62.30
2019-05-26T00:06:17.437Z,54.17
2019-05-26T00:08:49.678Z,57.00
2019-05-26T00:11:21.431Z,48.43
2019-05-26T00:13:54.918Z,29.80
2019-05-26T00:16:26.722Z,22.47
2019-05-26T00:18:59.143Z,32.57
2019-05-26T00:21:32.728Z,17.40
2019-05-26T00:24:04.240Z,28.60
2019-05-26T00:26:35.716Z,33.20
2019-05-26T00:29:07.498Z,33.13
2019-05-26T00:31:39.084Z,32.87
2019-05-26T00:34:10.598Z,30.30
2019-05-26T00:36:42.172Z,59.03
2019-05-26T00:39:13.675Z,62.47
2019-05-26T00:41:45.164Z,65.67
2019-05-26T00:44:16.672Z,64.97
2019-05-26T00:46:48.257Z,67.17
2019-05-26T00:49:19.724Z,67.73
2019-05-26T00:51:51.235Z,66.27
2019-05-26T00:54:23.217Z,66.07
2019-05-26T00:56:54.748Z,64.43
2019-05-26T00:59:26.327Z,65.57
2019-05-26T01:01:57.832Z,70.67
2019-05-26T01:04:29.396Z,71.13
2019-05-26T01:07:00.930Z,70.67
2019-05-26T01:09:32.579Z,73.60
2019-05-26T01:12:04.389Z,69.83
2019-05-26T01:14:35.859Z,66.07
2019-05-26T01:17:07.536Z,63.23
2019-05-26T01:19:40.483Z,61.17
2019-05-26T01:22:12.077Z,63.57
2019-05-26T01:24:43.659Z,63.37
2019-05-26T01:27:15.099Z,66.80
2019-05-26T01:29:47.698Z,68.50
2019-05-26T01:32:19.517Z,64.23
2019-05-26T01:34:51.071Z,67.10
2019-05-26T01:37:22.550Z,65.90
2019-05-26T01:39:55.937Z,68.17
2019-05-26T01:42:27.430Z,70.77
2019-05-26T01:44:58.985Z,69.37
2019-05-26T01:47:30.556Z,65.57
2019-05-26T01:50:01.973Z,66.73
2019-05-26T01:52:33.479Z,68.73
2019-05-26T01:55:05.197Z,69.47
2019-05-26T01:57:36.934Z,64.97
2019-05-26T02:00:10.070Z,66.33
2019-05-26T02:02:43.234Z,64.90
2019-05-26T02:05:14.868Z,61.83
2019-05-26T02:07:48.493Z,65.07
2019-05-26T02:10:20.878Z,67.33
2019-05-26T02:12:52.654Z,66.47
2019-05-26T02:15:24.937Z,66.53
2019-05-26T02:17:56.903Z,65.83
2019-05-26T02:20:31.090Z,64.67
2019-05-26T02:23:02.657Z,66.80
2019-05-26T02:25:34.578Z,65.43
2019-05-26T02:28:06.146Z,69.93
2019-05-26T02:30:37.903Z,68.70
2019-05-26T02:33:09.429Z,63.53
2019-05-26T02:35:42.929Z,64.30
2019-05-26T02:38:14.600Z,65.20
2019-05-26T02:40:46.345Z,63.37
2019-05-26T02:43:17.987Z,65.97
2019-05-26T02:45:50.535Z,65.03
2019-05-26T02:48:22.045Z,63.70
2019-05-26T02:50:53.491Z,62.33
2019-05-26T02:53:25.438Z,61.83
2019-05-26T02:55:57.635Z,60.67
2019-05-26T02:58:29.378Z,60.70
2019-05-26T03:01:00.951Z,57.80
2019-05-26T03:03:32.778Z,57.17
2019-05-26T03:06:05.225Z,60.10
2019-05-26T03:08:38.031Z,60.23
2019-05-26T03:11:11.656Z,60.13
2019-05-26T03:13:46.046Z,60.17
2019-05-26T03:16:20.919Z,59.80
2019-05-26T03:18:53.609Z,56.20
2019-05-26T03:21:27.641Z,59.03
2019-05-26T03:24:03.237Z,59.00
2019-05-26T03:26:35.798Z,55.43
2019-05-26T03:29:07.350Z,58.77
2019-05-26T03:31:38.881Z,58.23
2019-05-26T03:34:10.349Z,58.60
2019-05-26T03:36:44.404Z,61.27
2019-05-26T03:39:16.011Z,58.87
2019-05-26T03:41:47.610Z,58.03
2019-05-26T03:44:19.457Z,55.70
2019-05-26T03:46:50.927Z,56.53
2019-05-26T03:49:22.728Z,52.63
2019-05-26T03:51:54.249Z,54.07
2019-05-26T03:54:25.785Z,55.83
2019-05-26T03:56:57.308Z,56.23
2019-05-26T03:59:28.869Z,55.33
2019-05-26T04:02:00.583Z,56.80
2019-05-26T04:04:32.143Z,58.30
2019-05-26T04:07:03.691Z,55.13
2019-05-26T04:09:35.779Z,53.47
2019-05-26T04:12:07.595Z,53.83
2019-05-26T04:14:39.134Z,57.00
2019-05-26T04:17:10.922Z,56.87
2019-05-26T04:19:42.852Z,52.47
2019-05-26T04:22:16.014Z,58.57
2019-05-26T04:24:47.535Z,55.90
2019-05-26T04:27:19.137Z,57.27
2019-05-26T04:29:50.637Z,56.70
2019-05-26T04:32:22.129Z,55.77
2019-05-26T04:34:53.921Z,53.53
2019-05-26T04:37:25.439Z,54.97
2019-05-26T04:39:57.289Z,51.37
2019-05-26T04:42:28.714Z,54.00
2019-05-26T04:45:00.581Z,56.50
2019-05-26T04:47:32.325Z,57.33
2019-05-26T04:50:04.107Z,58.03
2019-05-26T04:52:35.807Z,57.20
2019-05-26T04:55:07.492Z,57.13
2019-05-26T04:57:39.018Z,54.23
2019-05-26T05:00:10.737Z,59.17
2019-05-26T05:02:42.166Z,55.80
2019-05-26T05:05:13.966Z,54.40
2019-05-26T05:07:45.452Z,54.27
2019-05-26T05:10:17.231Z,55.03
2019-05-26T05:12:48.784Z,51.83
2019-05-26T05:15:20.646Z,51.83
2019-05-26T05:17:52.408Z,51.37
2019-05-26T05:20:23.989Z,52.40
2019-05-26T05:22:55.555Z,50.23
2019-05-26T05:25:27.117Z,51.27
2019-05-26T05:28:00.524Z,48.70
2019-05-26T05:30:32.284Z,52.37
2019-05-26T05:33:03.882Z,48.83
2019-05-26T05:35:35.766Z,50.87
2019-05-26T05:38:07.218Z,49.30
2019-05-26T05:40:38.976Z,46.07
2019-05-26T05:43:10.439Z,48.57
2019-05-26T05:45:42.312Z,45.43
2019-05-26T05:48:14.022Z,49.50
2019-05-26T05:50:45.662Z,46.33
2019-05-26T05:53:18.837Z,48.50
2019-05-26T05:55:50.416Z,49.13
2019-05-26T05:58:22.149Z,48.07
2019-05-26T06:00:55.387Z,46.43
2019-05-26T06:03:27.435Z,46.93
2019-05-26T06:05:58.978Z,45.17
2019-05-26T06:08:30.631Z,46.33
2019-05-26T06:11:15.327Z,51.20
2019-05-26T06:13:35.376Z,42.30
2019-05-26T06:16:06.959Z,49.87
2019-05-26T06:18:38.448Z,48.70
2019-05-26T06:21:10.018Z,47.40
2019-05-26T06:23:41.592Z,43.03
2019-05-26T06:26:13.116Z,44.43
2019-05-26T06:28:44.827Z,47.17
2019-05-26T06:31:16.546Z,44.58
2019-05-26T06:33:48.279Z,49.90
2019-05-26T06:36:19.730Z,42.07
2019-05-26T06:38:51.243Z,43.47
2019-05-26T06:41:32.815Z,48.57
2019-05-26T06:43:56.031Z,49.70
2019-05-26T06:46:27.580Z,48.80
2019-05-26T06:48:59.602Z,44.15
2019-05-26T06:51:31.768Z,47.93
2019-05-26T06:54:03.531Z,46.28
2019-05-26T06:56:35.049Z,44.73
2019-05-26T06:59:06.872Z,43.73
2019-05-26T07:01:38.419Z,46.13
2019-05-26T07:04:12.107Z,41.40
2019-05-26T07:06:43.633Z,44.70
2019-05-26T07:09:15.158Z,44.80
2019-05-26T07:11:54.235Z,48.05
2019-05-26T07:14:19.877Z,42.25
2019-05-26T07:16:51.411Z,40.98
2019-05-26T07:19:23.073Z,49.15
2019-05-26T07:21:55.748Z,39.38
2019-05-26T07:24:29.463Z,49.63
2019-05-26T07:27:00.762Z,43.75
2019-05-26T07:29:32.473Z,45.60
2019-05-26T07:32:04.133Z,42.40
2019-05-26T07:34:35.870Z,47.03
2019-05-26T07:37:08.435Z,43.25
2019-05-26T07:39:40.158Z,44.48
2019-05-26T07:42:11.673Z,45.60
2019-05-26T07:44:43.607Z,45.58
2019-05-26T07:47:15.169Z,44.13
2019-05-26T07:49:46.781Z,43.87
2019-05-26T07:52:18.285Z,43.68
2019-05-26T07:54:50.138Z,45.33
2019-05-26T07:57:21.823Z,43.08
2019-05-26T07:59:53.530Z,36.70
2019-05-26T08:02:26.354Z,39.67
2019-05-26T08:04:58.024Z,39.80
2019-05-26T08:07:29.481Z,35.65
2019-05-26T08:10:03.261Z,34.38
2019-05-26T08:12:34.804Z,35.70
2019-05-26T08:15:09.221Z,34.53
2019-05-26T08:17:41.503Z,35.95
2019-05-26T08:20:13.759Z,32.17
2019-05-26T08:22:45.196Z,34.75
2019-05-26T08:25:17.565Z,32.23
2019-05-26T08:27:49.123Z,31.73
2019-05-26T08:30:21.151Z,29.70
2019-05-26T08:32:52.670Z,25.08
2019-05-26T08:35:24.557Z,21.68
2019-05-26T08:37:58.583Z,21.55
2019-05-26T08:40:31.059Z,21.07
2019-05-26T08:43:02.939Z,16.77
2019-05-26T08:45:34.986Z,17.70
2019-05-26T08:48:07.011Z,15.40
2019-05-26T08:50:38.681Z,15.15
2019-05-26T08:53:11.454Z,15.72
2019-05-26T08:55:43.012Z,13.90
2019-05-26T08:58:16.793Z,17.17
2019-05-26T09:00:48.340Z,13.53
2019-05-26T09:03:20.112Z,17.87
2019-05-26T09:05:51.631Z,17.77
2019-05-26T09:08:23.387Z,13.32
2019-05-26T09:10:55.104Z,16.32
2019-05-26T09:13:26.600Z,17.65
2019-05-26T09:15:58.178Z,16.07
2019-05-26T09:18:29.733Z,17.17
2019-05-26T09:21:01.200Z,14.95
2019-05-26T09:23:33.747Z,17.23
2019-05-26T09:26:05.600Z,16.93
2019-05-26T09:28:37.141Z,16.55
2019-05-26T09:31:08.772Z,13.20
2019-05-26T09:33:40.326Z,14.68
2019-05-26T09:36:11.954Z,15.90
2019-05-26T09:38:43.454Z,20.00
2019-05-26T09:41:14.944Z,18.10
2019-05-26T09:43:46.531Z,16.55
2019-05-26T09:46:19.326Z,19.12
2019-05-26T09:48:50.841Z,16.82
2019-05-26T09:51:25.504Z,21.07
2019-05-26T09:54:01.719Z,22.05
2019-05-26T09:56:30.303Z,18.40
2019-05-26T09:59:01.794Z,24.50
2019-05-26T10:01:33.614Z,21.02
2019-05-26T10:04:05.327Z,17.27
2019-05-26T10:06:36.806Z,17.80
2019-05-26T10:09:10.147Z,26.77
2019-05-26T10:11:41.920Z,24.02
2019-05-26T10:14:13.340Z,22.40
2019-05-26T10:16:44.770Z,21.30
2019-05-26T10:19:16.460Z,23.30
2019-05-26T10:21:47.993Z,27.32
2019-05-26T10:24:20.825Z,16.50
2019-05-26T10:26:53.562Z,19.37
2019-05-26T10:29:28.830Z,19.80
2019-05-26T10:32:00.318Z,23.55
2019-05-26T10:34:31.911Z,22.87
2019-05-26T10:37:03.677Z,22.22
2019-05-26T10:39:35.278Z,22.45
2019-05-26T10:42:07.276Z,19.65
2019-05-26T10:44:41.642Z,21.40
2019-05-26T10:47:13.382Z,21.15
2019-05-26T10:49:44.895Z,19.57
2019-05-26T10:52:16.476Z,17.75
2019-05-26T10:54:48.070Z,15.03
2019-05-26T10:57:20.718Z,16.25
2019-05-26T10:59:52.459Z,14.00
2019-05-26T11:02:24.177Z,15.68
2019-05-26T11:04:56.100Z,16.30
2019-05-26T11:07:27.738Z,14.10
2019-05-26T11:10:00.031Z,18.62
2019-05-26T11:12:31.809Z,19.50
2019-05-26T11:15:06.320Z,16.20
2019-05-26T11:17:38.021Z,14.20
2019-05-26T11:20:10.221Z,13.43
2019-05-26T11:22:41.764Z,11.65
2019-05-26T11:25:13.989Z,14.83
2019-05-26T11:27:45.588Z,14.20
2019-05-26T11:30:18.492Z,16.12
2019-05-26T11:32:50.049Z,19.82
2019-05-26T11:35:21.614Z,11.50
2019-05-26T11:37:53.304Z,15.53
2019-05-26T11:40:25.047Z,12.35
2019-05-26T11:42:56.477Z,13.08
2019-05-26T11:45:28.596Z,12.25
2019-05-26T11:48:00.147Z,18.52
2019-05-26T11:50:31.758Z,10.03
2019-05-26T11:53:03.512Z,13.95
2019-05-26T11:55:35.339Z,11.30
2019-05-26T11:58:06.871Z,10.93
2019-05-26T12:00:38.500Z,13.35
2019-05-26T12:03:09.985Z,13.48
2019-05-26T12:05:41.528Z,10.08
2019-05-26T12:08:13.024Z,13.83
2019-05-26T12:10:44.740Z,16.60
2019-05-26T12:13:16.454Z,11.65
2019-05-26T12:15:47.935Z,13.68
2019-05-26T12:18:19.735Z,14.83
2019-05-26T12:20:51.266Z,11.70
2019-05-26T12:23:22.858Z,11.20
2019-05-26T12:25:54.570Z,13.98
2019-05-26T12:28:26.297Z,12.70
2019-05-26T12:30:57.829Z,9.33
2019-05-26T12:33:29.495Z,12.18
2019-05-26T12:36:01.336Z,13.45
2019-05-26T12:38:34.633Z,10.70
2019-05-26T12:41:08.174Z,9.65
2019-05-26T12:43:39.628Z,9.60
2019-05-26T12:46:11.447Z,11.15
2019-05-26T12:48:43.046Z,8.53
2019-05-26T12:51:14.875Z,6.00
2019-05-26T12:53:46.299Z,12.65
2019-05-26T12:56:17.881Z,6.60
2019-05-26T12:58:50.296Z,6.30
2019-05-26T13:01:21.970Z,9.13
2019-05-26T13:03:53.499Z,6.17
2019-05-26T13:06:26.599Z,12.40
2019-05-26T13:08:58.617Z,5.92
2019-05-26T13:11:30.092Z,9.35
2019-05-26T13:14:01.579Z,7.55
2019-05-26T13:16:35.838Z,7.53
2019-05-26T13:19:06.870Z,5.28
2019-05-26T13:21:38.523Z,8.60
2019-05-26T13:24:10.347Z,8.50
2019-05-26T13:26:42.787Z,4.33
2019-05-26T13:29:14.296Z,6.45
2019-05-26T13:31:45.766Z,10.03
2019-05-26T13:34:17.409Z,7.47
2019-05-26T13:36:48.975Z,9.70
2019-05-26T13:39:20.640Z,5.25
2019-05-26T13:41:55.811Z,11.15
2019-05-26T13:44:27.425Z,6.08
2019-05-26T13:46:59.160Z,4.92
2019-05-26T13:49:30.768Z,6.25
2019-05-26T13:52:02.344Z,6.85
2019-05-26T13:54:33.855Z,5.20
2019-05-26T13:57:06.926Z,7.28
2019-05-26T13:59:38.793Z,7.90
2019-05-26T14:02:10.321Z,8.68
2019-05-26T14:04:41.894Z,13.30
2019-05-26T14:07:13.461Z,9.38
2019-05-26T14:09:45.033Z,8.78
2019-05-26T14:12:16.562Z,5.70
2019-05-26T14:14:48.335Z,8.73
2019-05-26T14:17:19.976Z,6.00
2019-05-26T14:19:53.751Z,6.78
2019-05-26T14:22:25.335Z,11.25
2019-05-26T14:24:56.911Z,21.82
2019-05-26T14:27:30.441Z,11.28
2019-05-26T14:30:02.315Z,11.30
2019-05-26T14:32:33.922Z,7.20
2019-05-26T14:35:06.973Z,9.60
2019-05-26T14:37:38.560Z,9.83
2019-05-26T14:40:11.378Z,11.30
2019-05-26T14:42:42.919Z,10.72
2019-05-26T14:45:14.788Z,12.00
2019-05-26T14:47:46.534Z,10.82
2019-05-26T14:50:18.949Z,8.45
2019-05-26T14:52:51.428Z,13.53
2019-05-26T14:55:23.018Z,7.80
2019-05-26T14:57:54.648Z,10.48
2019-05-26T15:00:26.587Z,9.35
2019-05-26T15:02:58.125Z,11.30
2019-05-26T15:05:29.866Z,8.53
2019-05-26T15:08:01.922Z,11.45
2019-05-26T15:10:33.499Z,11.97
2019-05-26T15:13:05.272Z,13.98
2019-05-26T15:15:36.831Z,14.70
2019-05-26T15:18:08.473Z,12.93
2019-05-26T15:20:40.062Z,13.22
2019-05-26T15:23:11.831Z,11.93
2019-05-26T15:25:45.047Z,10.23
2019-05-26T15:28:16.595Z,10.78
2019-05-26T15:30:48.139Z,12.18
2019-05-26T15:33:19.668Z,11.35
2019-05-26T15:35:51.170Z,12.50
2019-05-26T15:38:22.771Z,11.63
2019-05-26T15:40:54.274Z,19.42
2019-05-26T15:43:25.912Z,10.18
2019-05-26T15:45:57.452Z,10.68
2019-05-26T15:48:32.102Z,13.60
2019-05-26T15:51:03.701Z,9.90
2019-05-26T15:53:35.304Z,12.63
2019-05-26T15:56:06.885Z,10.68
2019-05-26T15:58:38.494Z,14.63
2019-05-26T16:01:10.028Z,8.95
2019-05-26T16:03:41.560Z,13.30
2019-05-26T16:06:13.358Z,12.75
2019-05-26T16:08:44.875Z,10.43
2019-05-26T16:11:16.469Z,12.65
2019-05-26T16:13:48.113Z,13.95
2019-05-26T16:16:19.825Z,13.93
2019-05-26T16:18:52.289Z,10.50
2019-05-26T16:21:27.914Z,9.48
2019-05-26T16:23:57.603Z,10.15
2019-05-26T16:26:29.101Z,12.43
2019-05-26T16:29:01.966Z,14.05
2019-05-26T16:31:33.468Z,10.10
2019-05-26T16:34:06.314Z,12.82
2019-05-26T16:36:38.150Z,12.40
2019-05-26T16:39:09.713Z,10.05
2019-05-26T16:41:41.227Z,13.93
2019-05-26T16:44:12.811Z,9.60
2019-05-26T16:46:55.926Z,16.95
2019-05-26T16:49:19.212Z,12.03
2019-05-26T16:51:50.747Z,12.90
2019-05-26T16:54:22.336Z,9.15
2019-05-26T16:56:53.918Z,15.15
2019-05-26T16:59:25.645Z,7.72
2019-05-26T17:01:57.157Z,12.30
2019-05-26T17:04:28.921Z,16.25
2019-05-26T17:07:00.836Z,9.18
2019-05-26T17:09:34.131Z,16.45
2019-05-26T17:12:06.338Z,10.48
2019-05-26T17:14:37.911Z,9.50
2019-05-26T17:17:14.874Z,11.55
2019-05-26T17:19:43.152Z,19.25
2019-05-26T17:22:14.915Z,10.75
2019-05-26T17:24:46.625Z,12.70
2019-05-26T17:27:20.229Z,17.60
2019-05-26T17:29:52.877Z,15.83
2019-05-26T17:32:24.767Z,15.70
2019-05-26T17:34:56.930Z,16.57
2019-05-26T17:37:28.843Z,17.37
2019-05-26T17:40:00.427Z,14.40
2019-05-26T17:42:33.223Z,11.50
2019-05-26T17:45:05.285Z,16.80
2019-05-26T17:47:36.836Z,23.05
2019-05-26T17:50:09.189Z,16.37
2019-05-26T17:52:40.847Z,12.90
2019-05-26T17:55:13.047Z,11.63
2019-05-26T17:57:46.012Z,15.30
2019-05-26T18:00:18.099Z,15.63
2019-05-26T18:02:49.824Z,14.25
2019-05-26T18:05:21.554Z,12.47
2019-05-26T18:07:53.258Z,13.13
2019-05-26T18:10:24.944Z,12.53
2019-05-26T18:12:59.580Z,13.88
2019-05-26T18:15:31.395Z,12.70
2019-05-26T18:18:04.262Z,13.78
2019-05-26T18:20:36.236Z,14.15
2019-05-26T18:23:10.187Z,17.17
2019-05-26T18:25:41.750Z,13.05
2019-05-26T18:28:13.354Z,13.40
2019-05-26T18:30:46.933Z,15.72
2019-05-26T18:33:18.547Z,20.25
2019-05-26T18:35:50.165Z,19.20
2019-05-26T18:38:21.829Z,18.02
2019-05-26T18:40:53.613Z,23.15
2019-05-26T18:43:25.188Z,23.95
2019-05-26T18:45:56.792Z,22.13
2019-05-26T18:48:28.544Z,27.27
2019-05-26T18:51:00.172Z,24.82
2019-05-26T18:53:31.768Z,26.30
2019-05-26T18:56:03.655Z,28.10
2019-05-26T18:58:35.652Z,24.77
2019-05-26T19:01:07.648Z,23.83
2019-05-26T19:03:39.269Z,26.65
2019-05-26T19:06:11.005Z,25.35
2019-05-26T19:08:42.596Z,22.48
2019-05-26T19:11:14.354Z,24.27
2019-05-26T19:13:46.364Z,21.85
2019-05-26T19:16:17.901Z,32.28
2019-05-26T19:18:49.410Z,26.00
2019-05-26T19:21:22.728Z,27.32
2019-05-26T19:23:54.513Z,25.32
2019-05-26T19:26:26.235Z,28.83
2019-05-26T19:28:58.342Z,27.07
2019-05-26T19:31:30.213Z,28.63
2019-05-26T19:34:01.830Z,25.90
2019-05-26T19:36:33.371Z,29.13
2019-05-26T19:39:07.337Z,33.55
2019-05-26T19:41:39.587Z,29.70
2019-05-26T19:44:11.418Z,29.10
2019-05-26T19:46:43.165Z,30.53
2019-05-26T19:49:14.771Z,31.47
2019-05-26T19:51:46.642Z,28.53
2019-05-26T19:54:18.252Z,24.50
2019-05-26T19:56:50.036Z,28.13
2019-05-26T19:59:21.663Z,20.57
2019-05-26T20:01:53.341Z,21.00
2019-05-26T20:04:24.932Z,25.47
2019-05-26T20:06:57.891Z,20.73
2019-05-26T20:09:29.896Z,20.40
2019-05-26T20:12:01.540Z,15.37
2019-05-26T20:14:33.501Z,19.03
2019-05-26T20:17:05.458Z,16.47
2019-05-26T20:19:37.042Z,17.60
2019-05-26T20:22:08.641Z,18.55
2019-05-26T20:24:40.260Z,17.37
2019-05-26T20:27:12.105Z,16.43
2019-05-26T20:29:43.906Z,15.47
2019-05-26T20:32:16.753Z,18.33
2019-05-26T20:34:48.292Z,15.13
2019-05-26T20:37:20.317Z,16.00
2019-05-26T20:39:51.868Z,15.00
2019-05-26T20:42:25.062Z,18.10
2019-05-26T20:44:56.985Z,12.07
2019-05-26T20:47:28.859Z,13.80
2019-05-26T20:50:00.676Z,14.00
2019-05-26T20:52:32.563Z,18.87
2019-05-26T20:55:04.579Z,17.53
2019-05-26T20:57:36.722Z,17.80
2019-05-26T21:00:10.244Z,15.07
2019-05-26T21:02:45.645Z,17.60
2019-05-26T21:05:18.435Z,17.17
2019-05-26T21:07:50.405Z,15.27
2019-05-26T21:10:22.308Z,17.00
2019-05-26T21:12:54.569Z,16.00
2019-05-26T21:15:26.498Z,17.23
2019-05-26T21:17:58.228Z,15.43
2019-05-26T21:20:29.987Z,19.67
2019-05-26T21:23:01.643Z,18.03
2019-05-26T21:25:33.420Z,18.30
2019-05-26T21:28:05.003Z,22.32
2019-05-26T21:30:36.971Z,25.60
2019-05-26T21:33:08.908Z,23.93
2019-05-26T21:35:40.662Z,28.35
2019-05-26T21:38:12.278Z,26.00
2019-05-26T21:40:43.936Z,29.20
2019-05-26T21:43:15.662Z,31.27
2019-05-26T21:45:47.563Z,31.80
2019-05-26T21:48:19.342Z,32.60
2019-05-26T21:50:50.917Z,25.97
2019-05-26T21:53:22.542Z,29.43
2019-05-26T21:55:54.392Z,26.83
2019-05-26T21:58:26.250Z,35.17
2019-05-26T22:00:57.930Z,27.77
2019-05-26T22:03:30.146Z,32.07
2019-05-26T22:06:01.871Z,32.38
2019-05-26T22:08:33.501Z,33.90
2019-05-26T22:11:05.499Z,32.10
2019-05-26T22:13:37.333Z,34.58
2019-05-26T22:16:08.925Z,31.50
2019-05-26T22:18:40.521Z,36.75
2019-05-26T22:21:12.092Z,33.08
2019-05-26T22:23:43.936Z,39.73
2019-05-26T22:26:15.957Z,39.97
2019-05-26T22:28:47.524Z,30.60
2019-05-26T22:31:19.388Z,36.07
2019-05-26T22:33:51.071Z,37.17
2019-05-26T22:36:22.908Z,35.40
2019-05-26T22:38:54.767Z,39.57
2019-05-26T22:41:26.319Z,32.80
2019-05-26T22:43:57.892Z,29.00
2019-05-26T22:46:29.506Z,24.50
2019-05-26T22:49:01.089Z,23.00
2019-05-26T22:51:32.629Z,22.00
2019-05-26T22:54:04.564Z,22.83
2019-05-26T22:56:36.355Z,20.87
2019-05-26T22:59:07.989Z,20.57
2019-05-26T23:01:39.570Z,22.00
2019-05-26T23:04:11.400Z,23.53
2019-05-26T23:06:42.919Z,22.90
2019-05-26T23:09:14.856Z,25.30
2019-05-26T23:11:46.470Z,34.70
2019-05-26T23:14:18.423Z,31.03
2019-05-26T23:16:50.083Z,32.50
2019-05-26T23:19:21.656Z,36.47
2019-05-26T23:21:53.645Z,28.13
2019-05-26T23:24:25.258Z,36.63
2019-05-26T23:26:56.772Z,33.05
2019-05-26T23:29:28.461Z,28.13
2019-05-26T23:32:00.061Z,36.30
2019-05-26T23:34:31.667Z,28.57
2019-05-26T23:37:03.676Z,30.40
2019-05-26T23:39:35.594Z,28.70
2019-05-26T23:42:09.185Z,26.13
2019-05-26T23:44:40.841Z,28.63
2019-05-26T23:47:12.423Z,26.10
2019-05-26T23:49:46.157Z,25.00
2019-05-26T23:52:19.442Z,25.90
2019-05-26T23:54:51.002Z,28.27
2019-05-26T23:57:22.614Z,23.73
2019-05-26T23:59:54.198Z,20.03
